createdAt,value
2018-07-19T00:02:05.329Z,20.71
2018-07-19T00:04:34.066Z,20.68
2018-07-19T00:07:02.806Z,20.74
2018-07-19T00:09:31.511Z,20.55
2018-07-19T00:12:01.898Z,20.34
2018-07-19T00:14:30.545Z,20.24
2018-07-19T00:16:59.193Z,20.27
2018-07-19T00:19:27.525Z,20.24
2018-07-19T00:21:56.140Z,20.30
2018-07-19T00:24:24.464Z,20.24
2018-07-19T00:26:52.963Z,20.28
2018-07-19T00:29:21.978Z,20.18
2018-07-19T00:31:52.368Z,20.02
2018-07-19T00:34:22.011Z,20.00
2018-07-19T00:36:50.652Z,20.01
2018-07-19T00:39:19.597Z,20.01
2018-07-19T00:41:48.410Z,19.91
2018-07-19T00:44:17.446Z,19.88
2018-07-19T00:46:46.156Z,19.86
2018-07-19T00:49:14.875Z,19.78
2018-07-19T00:51:43.173Z,19.73
2018-07-19T00:54:11.476Z,19.71
2018-07-19T00:56:39.797Z,19.64
2018-07-19T00:59:08.475Z,19.61
2018-07-19T01:01:37.641Z,19.55
2018-07-19T01:04:06.319Z,19.56
2018-07-19T01:06:34.574Z,19.64
2018-07-19T01:09:03.836Z,19.63
2018-07-19T01:11:32.597Z,19.69
2018-07-19T01:14:01.111Z,19.60
2018-07-19T01:16:30.047Z,19.48
2018-07-19T01:18:58.660Z,19.44
2018-07-19T01:21:26.902Z,19.46
2018-07-19T01:23:55.137Z,19.47
2018-07-19T01:26:23.393Z,19.44
2018-07-19T01:28:52.228Z,19.44
2018-07-19T01:31:20.492Z,19.47
2018-07-19T01:33:50.290Z,19.56
2018-07-19T01:36:18.573Z,19.40
2018-07-19T01:38:47.121Z,19.33
2018-07-19T01:41:38.345Z,19.28
2018-07-19T01:44:06.947Z,19.23
2018-07-19T01:46:36.195Z,19.19
2018-07-19T01:49:05.557Z,19.15
2018-07-19T01:51:34.646Z,19.18
2018-07-19T01:54:04.845Z,19.15
2018-07-19T01:56:33.653Z,19.17
2018-07-19T01:59:08.937Z,19.17
2018-07-19T02:01:37.246Z,19.08
2018-07-19T02:04:07.452Z,19.08
2018-07-19T02:06:35.924Z,19.00
2018-07-19T02:09:05.635Z,18.99
2018-07-19T02:11:34.024Z,18.91
2018-07-19T02:14:02.944Z,18.85
2018-07-19T02:16:31.287Z,18.87
2018-07-19T02:19:00.248Z,18.95
2018-07-19T02:21:28.535Z,19.06
2018-07-19T02:23:57.553Z,19.02
2018-07-19T02:26:26.329Z,18.92
2018-07-19T02:28:54.739Z,18.86
2018-07-19T02:31:23.089Z,18.74
2018-07-19T02:33:52.569Z,18.66
2018-07-19T02:36:20.862Z,18.72
2018-07-19T02:38:49.990Z,18.75
2018-07-19T02:41:19.052Z,18.72
2018-07-19T02:43:47.868Z,18.72
2018-07-19T02:46:17.102Z,18.72
2018-07-19T02:48:45.422Z,18.61
2018-07-19T02:51:15.096Z,18.55
2018-07-19T02:53:46.044Z,18.47
2018-07-19T02:56:16.361Z,18.45
2018-07-19T02:58:45.179Z,18.38
2018-07-19T03:01:14.716Z,18.49
2018-07-19T03:03:44.061Z,18.45
2018-07-19T03:06:12.415Z,18.48
2018-07-19T03:08:40.810Z,18.44
2018-07-19T03:11:11.467Z,18.36
2018-07-19T03:13:40.305Z,18.32
2018-07-19T03:16:08.843Z,18.32
2018-07-19T03:18:37.127Z,18.36
2018-07-19T03:21:06.960Z,18.32
2018-07-19T03:23:35.314Z,18.29
2018-07-19T03:26:03.629Z,18.37
2018-07-19T03:28:31.896Z,18.34
2018-07-19T03:31:00.426Z,18.25
2018-07-19T03:33:28.696Z,18.47
2018-07-19T03:35:57.242Z,18.42
2018-07-19T03:38:25.644Z,18.29
2018-07-19T03:40:57.321Z,18.21
2018-07-19T03:43:25.728Z,18.21
2018-07-19T03:45:56.110Z,18.19
2018-07-19T03:48:27.211Z,18.32
2018-07-19T03:50:55.854Z,18.25
2018-07-19T03:53:24.257Z,18.29
2018-07-19T03:55:52.641Z,18.32
2018-07-19T03:58:22.405Z,18.34
2018-07-19T04:00:52.035Z,18.38
2018-07-19T04:03:22.566Z,18.35
2018-07-19T04:05:50.912Z,18.37
2018-07-19T04:08:20.985Z,18.50
2018-07-19T04:10:49.471Z,18.54
2018-07-19T04:13:17.878Z,18.46
2018-07-19T04:15:46.231Z,18.50
2018-07-19T04:18:15.049Z,18.55
2018-07-19T04:20:44.104Z,18.61
2018-07-19T04:23:12.653Z,18.68
2018-07-19T04:25:41.272Z,18.74
2018-07-19T04:28:10.528Z,18.88
2018-07-19T04:30:39.224Z,19.03
2018-07-19T04:33:08.353Z,18.91
2018-07-19T04:35:43.764Z,18.96
2018-07-19T04:38:13.728Z,18.99
2018-07-19T04:40:42.410Z,19.07
2018-07-19T04:43:10.742Z,19.09
2018-07-19T04:45:39.290Z,19.06
2018-07-19T04:48:09.667Z,19.13
2018-07-19T04:50:37.964Z,19.10
2018-07-19T04:53:08.008Z,19.26
2018-07-19T04:55:37.078Z,19.36
2018-07-19T04:58:05.598Z,19.41
2018-07-19T05:00:34.571Z,19.33
2018-07-19T05:03:03.053Z,19.49
2018-07-19T05:05:31.524Z,19.55
2018-07-19T05:08:00.909Z,19.51
2018-07-19T05:10:30.005Z,19.60
2018-07-19T05:12:59.294Z,19.58
2018-07-19T05:15:28.314Z,19.66
2018-07-19T05:17:56.918Z,19.73
2018-07-19T05:20:26.321Z,19.83
2018-07-19T05:22:55.144Z,19.84
2018-07-19T05:25:23.927Z,19.90
2018-07-19T05:27:52.886Z,19.96
2018-07-19T05:30:22.280Z,20.09
2018-07-19T05:32:51.593Z,20.13
2018-07-19T05:35:20.563Z,20.28
2018-07-19T05:37:49.673Z,20.31
2018-07-19T05:40:18.044Z,20.46
2018-07-19T05:42:47.493Z,20.66
2018-07-19T05:45:16.381Z,20.67
2018-07-19T05:47:45.800Z,20.78
2018-07-19T05:50:14.217Z,20.95
2018-07-19T05:52:43.457Z,21.07
2018-07-19T05:55:12.356Z,21.07
2018-07-19T05:57:40.702Z,21.16
2018-07-19T06:00:09.770Z,21.28
2018-07-19T06:02:38.128Z,21.47
2018-07-19T06:05:07.094Z,21.38
2018-07-19T06:07:35.404Z,21.49
2018-07-19T06:10:03.897Z,21.49
2018-07-19T06:12:32.127Z,21.52
2018-07-19T06:15:00.368Z,21.57
2018-07-19T06:17:30.119Z,21.49
2018-07-19T06:19:58.382Z,21.37
2018-07-19T06:22:27.425Z,21.58
2018-07-19T06:24:56.170Z,21.64
2018-07-19T06:27:25.065Z,21.82
2018-07-19T06:29:53.339Z,21.83
2018-07-19T06:32:22.281Z,21.92
2018-07-19T06:34:51.117Z,22.07
2018-07-19T06:37:19.631Z,22.18
2018-07-19T06:39:47.850Z,22.32
2018-07-19T06:42:16.091Z,22.50
2018-07-19T06:44:44.892Z,22.22
2018-07-19T06:47:13.193Z,22.51
2018-07-19T06:49:41.813Z,22.50
2018-07-19T06:52:10.396Z,22.46
2018-07-19T06:54:38.670Z,22.78
2018-07-19T06:57:06.908Z,22.69
2018-07-19T06:59:35.239Z,22.77
2018-07-19T07:02:04.107Z,22.48
2018-07-19T07:04:32.685Z,22.81
2018-07-19T07:07:00.929Z,23.11
2018-07-19T07:09:29.164Z,22.99
2018-07-19T07:11:57.388Z,23.13
2018-07-19T07:14:25.590Z,22.88
2018-07-19T07:16:53.862Z,22.95
2018-07-19T07:19:22.301Z,23.31
2018-07-19T07:21:50.812Z,23.49
2018-07-19T07:24:19.015Z,23.32
2018-07-19T07:26:47.244Z,23.54
2018-07-19T07:29:15.459Z,23.15
2018-07-19T07:31:43.664Z,23.55
2018-07-19T07:34:11.896Z,23.96
2018-07-19T07:36:40.472Z,24.22
2018-07-19T07:39:10.708Z,23.87
2018-07-19T07:41:39.131Z,23.74
2018-07-19T07:44:07.987Z,23.97
2018-07-19T07:46:36.445Z,23.99
2018-07-19T07:49:05.194Z,24.15
2018-07-19T07:51:33.394Z,24.20
2018-07-19T07:54:02.624Z,24.56
2018-07-19T07:56:30.851Z,24.42
2018-07-19T07:58:59.404Z,24.37
2018-07-19T08:01:27.952Z,24.43
2018-07-19T08:03:56.435Z,24.37
2018-07-19T08:06:25.013Z,24.80
2018-07-19T08:08:53.280Z,24.76
2018-07-19T08:11:22.088Z,24.70
2018-07-19T08:13:50.304Z,24.91
2018-07-19T08:16:18.593Z,25.00
2018-07-19T08:18:47.128Z,25.09
2018-07-19T08:21:15.489Z,25.48
2018-07-19T08:23:43.745Z,25.55
2018-07-19T08:26:11.991Z,25.61
2018-07-19T08:28:40.342Z,25.62
2018-07-19T08:31:08.686Z,25.76
2018-07-19T08:33:37.160Z,25.87
2018-07-19T08:36:05.965Z,26.19
2018-07-19T08:38:34.098Z,26.16
2018-07-19T08:41:02.345Z,26.27
2018-07-19T08:43:31.187Z,26.45
2018-07-19T08:45:59.992Z,26.04
2018-07-19T08:48:28.472Z,25.93
2018-07-19T08:50:56.832Z,26.10
2018-07-19T08:53:25.332Z,26.29
2018-07-19T08:55:53.626Z,26.68
2018-07-19T08:58:22.247Z,26.81
2018-07-19T09:00:50.813Z,27.19
2018-07-19T09:03:20.391Z,26.91
2018-07-19T09:05:48.653Z,27.04
2018-07-19T09:08:16.954Z,27.36
2018-07-19T09:10:45.576Z,27.61
2018-07-19T09:13:14.112Z,27.52
2018-07-19T09:15:42.698Z,27.59
2018-07-19T09:18:10.924Z,27.44
2018-07-19T09:20:40.037Z,27.28
2018-07-19T09:23:08.443Z,27.71
2018-07-19T09:25:36.668Z,28.39
2018-07-19T09:28:05.334Z,28.34
2018-07-19T09:30:33.557Z,28.76
2018-07-19T09:33:01.793Z,28.33
2018-07-19T09:35:32.054Z,28.52
2018-07-19T09:38:00.832Z,28.73
2018-07-19T09:40:30.045Z,28.52
2018-07-19T09:42:58.362Z,28.36
2018-07-19T09:45:27.252Z,28.13
2018-07-19T09:47:55.680Z,28.55
2018-07-19T09:50:24.061Z,28.43
2018-07-19T09:52:53.196Z,28.45
2018-07-19T09:55:21.510Z,28.39
2018-07-19T09:57:49.991Z,28.57
2018-07-19T10:00:23.855Z,28.60
2018-07-19T10:02:52.251Z,28.96
2018-07-19T10:05:20.797Z,28.84
2018-07-19T10:07:49.140Z,29.14
2018-07-19T10:10:17.725Z,29.42
2018-07-19T10:12:46.196Z,29.47
2018-07-19T10:15:14.939Z,29.57
2018-07-19T10:17:43.464Z,29.41
2018-07-19T10:20:11.736Z,30.09
2018-07-19T10:22:40.027Z,30.35
2018-07-19T10:25:08.808Z,29.89
2018-07-19T10:27:37.056Z,29.99
2018-07-19T10:30:08.136Z,30.41
2018-07-19T10:32:37.190Z,30.26
2018-07-19T10:35:05.625Z,29.97
2018-07-19T10:37:34.001Z,30.04
2018-07-19T10:40:02.608Z,30.29
2018-07-19T10:42:30.933Z,30.50
2018-07-19T10:45:00.100Z,30.44
2018-07-19T10:47:28.733Z,30.47
2018-07-19T10:49:57.237Z,31.08
2018-07-19T10:52:25.697Z,30.96
2018-07-19T10:54:53.972Z,30.87
2018-07-19T10:57:22.219Z,30.88
2018-07-19T10:59:50.501Z,31.16
2018-07-19T11:02:18.938Z,30.99
2018-07-19T11:04:47.995Z,29.90
2018-07-19T11:07:17.101Z,29.86
2018-07-19T11:09:46.182Z,30.21
2018-07-19T11:12:14.414Z,30.66
2018-07-19T11:14:43.342Z,30.72
2018-07-19T11:17:12.130Z,30.50
2018-07-19T11:19:40.363Z,31.32
2018-07-19T11:22:08.626Z,31.03
2018-07-19T11:24:37.278Z,31.20
2018-07-19T11:27:06.133Z,31.62
2018-07-19T11:29:34.420Z,31.53
2018-07-19T11:32:03.066Z,31.63
2018-07-19T11:34:31.354Z,31.35
2018-07-19T11:36:59.593Z,31.16
2018-07-19T11:39:28.356Z,30.77
2018-07-19T11:41:56.797Z,31.30
2018-07-19T11:44:25.673Z,31.52
2018-07-19T11:46:53.943Z,31.42
2018-07-19T11:49:22.199Z,31.15
2018-07-19T11:51:50.443Z,31.12
2018-07-19T11:54:18.978Z,31.00
2018-07-19T11:56:47.143Z,31.26
2018-07-19T11:59:15.430Z,31.49
2018-07-19T12:01:43.771Z,31.60
2018-07-19T12:04:12.453Z,31.58
2018-07-19T12:06:40.689Z,31.30
2018-07-19T12:09:10.558Z,31.41
2018-07-19T12:11:38.858Z,32.07
2018-07-19T12:14:07.644Z,32.12
2018-07-19T12:16:35.817Z,31.80
2018-07-19T12:19:04.414Z,31.34
2018-07-19T12:21:33.001Z,31.45
2018-07-19T12:24:01.227Z,31.38
2018-07-19T12:26:29.482Z,31.10
2018-07-19T12:28:57.691Z,30.76
2018-07-19T12:31:26.507Z,31.49
2018-07-19T12:33:54.732Z,31.93
2018-07-19T12:36:23.601Z,31.97
2018-07-19T12:38:51.826Z,32.44
2018-07-19T12:41:20.289Z,32.77
2018-07-19T12:43:48.433Z,32.96
2018-07-19T12:46:17.207Z,33.42
2018-07-19T12:48:45.689Z,32.62
2018-07-19T12:51:14.015Z,33.01
2018-07-19T12:53:42.303Z,32.94
2018-07-19T12:56:10.584Z,32.46
2018-07-19T12:58:39.651Z,33.13
2018-07-19T13:01:08.335Z,32.61
2018-07-19T13:03:36.574Z,33.15
2018-07-19T13:06:04.923Z,33.39
2018-07-19T13:08:33.139Z,33.18
2018-07-19T13:11:01.508Z,33.10
2018-07-19T13:13:29.721Z,32.60
2018-07-19T13:15:58.029Z,32.65
2018-07-19T13:18:26.575Z,33.10
2018-07-19T13:20:55.129Z,33.29
2018-07-19T13:23:23.685Z,34.32
2018-07-19T13:25:52.443Z,34.94
2018-07-19T13:28:20.756Z,36.02
2018-07-19T13:30:49.676Z,36.68
2018-07-19T13:33:17.989Z,36.84
2018-07-19T13:35:46.490Z,36.76
2018-07-19T13:38:14.733Z,37.07
2018-07-19T13:40:43.685Z,36.84
2018-07-19T13:43:11.931Z,38.23
2018-07-19T13:45:40.500Z,39.18
2018-07-19T13:48:08.769Z,38.30
2018-07-19T13:50:37.019Z,38.70
2018-07-19T13:53:36.766Z,39.08
2018-07-19T13:56:06.164Z,40.02
2018-07-19T13:58:35.023Z,40.10
2018-07-19T14:01:04.781Z,40.40
2018-07-19T14:03:33.219Z,40.55
2018-07-19T14:06:02.712Z,39.61
2018-07-19T14:08:31.900Z,40.69
2018-07-19T14:11:00.811Z,41.35
2018-07-19T14:13:29.368Z,41.54
2018-07-19T14:15:58.228Z,43.53
2018-07-19T14:18:26.661Z,43.60
2018-07-19T14:20:54.904Z,43.62
2018-07-19T14:23:23.829Z,42.43
2018-07-19T14:25:52.357Z,43.19
2018-07-19T14:28:21.713Z,44.25
2018-07-19T14:30:50.058Z,43.57
2018-07-19T14:33:19.328Z,42.76
2018-07-19T14:35:47.645Z,44.19
2018-07-19T14:38:15.935Z,43.02
2018-07-19T14:40:44.465Z,43.83
2018-07-19T14:43:12.670Z,45.01
2018-07-19T14:45:41.843Z,43.67
2018-07-19T14:48:10.152Z,44.64
2018-07-19T14:50:39.077Z,43.40
2018-07-19T14:53:08.003Z,41.08
2018-07-19T14:55:36.413Z,40.76
2018-07-19T14:58:04.719Z,42.10
2018-07-19T15:00:33.008Z,43.17
2018-07-19T15:03:01.321Z,44.68
2018-07-19T15:05:29.951Z,45.37
2018-07-19T15:07:58.275Z,45.52
2018-07-19T15:10:26.574Z,44.55
2018-07-19T15:12:55.943Z,42.81
2018-07-19T15:15:24.375Z,42.59
2018-07-19T15:17:52.651Z,42.76
2018-07-19T15:20:22.532Z,44.38
2018-07-19T15:22:51.205Z,45.73
2018-07-19T15:25:19.445Z,44.26
2018-07-19T15:27:47.766Z,43.08
2018-07-19T15:30:16.091Z,43.06
2018-07-19T15:32:44.514Z,43.21
2018-07-19T15:35:13.343Z,43.60
2018-07-19T15:37:41.618Z,43.96
2018-07-19T15:40:11.336Z,44.57
2018-07-19T15:42:39.978Z,44.21
2018-07-19T15:45:08.229Z,45.15
2018-07-19T15:47:36.765Z,42.66
2018-07-19T15:50:05.609Z,43.18
2018-07-19T15:52:34.593Z,44.07
2018-07-19T15:55:03.905Z,45.42
2018-07-19T15:57:33.639Z,46.05
2018-07-19T16:00:02.149Z,46.06
2018-07-19T16:02:31.081Z,45.51
2018-07-19T16:05:00.908Z,45.20
2018-07-19T16:07:29.221Z,45.52
2018-07-19T16:09:57.456Z,45.11
2018-07-19T16:12:26.212Z,46.13
2018-07-19T16:14:54.572Z,44.46
2018-07-19T16:17:22.871Z,45.22
2018-07-19T16:19:50.988Z,45.60
2018-07-19T16:22:19.909Z,44.39
2018-07-19T16:24:49.415Z,45.16
2018-07-19T16:27:17.930Z,44.21
2018-07-19T16:29:46.150Z,42.76
2018-07-19T16:32:14.423Z,42.05
2018-07-19T16:34:43.591Z,41.95
2018-07-19T16:37:11.729Z,42.44
2018-07-19T16:39:39.958Z,41.23
2018-07-19T16:42:08.964Z,41.73
2018-07-19T16:44:37.917Z,42.08
2018-07-19T16:47:06.272Z,41.43
2018-07-19T16:49:35.137Z,41.43
2018-07-19T16:52:03.355Z,41.99
2018-07-19T16:54:32.299Z,42.55
2018-07-19T16:57:00.936Z,43.75
2018-07-19T16:59:29.677Z,43.38
2018-07-19T17:01:57.904Z,41.56
2018-07-19T17:04:27.556Z,40.58
2018-07-19T17:06:56.081Z,40.68
2018-07-19T17:09:24.628Z,41.16
2018-07-19T17:11:53.731Z,41.39
2018-07-19T17:14:22.622Z,41.43
2018-07-19T17:16:51.060Z,41.42
2018-07-19T17:19:20.138Z,41.99
2018-07-19T17:21:48.515Z,40.84
2018-07-19T17:24:17.863Z,41.28
2018-07-19T17:26:46.657Z,41.25
2018-07-19T17:29:15.815Z,41.03
2018-07-19T17:31:44.132Z,40.93
2018-07-19T17:34:12.517Z,40.66
2018-07-19T17:36:41.110Z,39.36
2018-07-19T17:39:11.347Z,37.34
2018-07-19T17:41:39.788Z,35.57
2018-07-19T17:44:08.227Z,35.11
2018-07-19T17:46:36.800Z,34.11
2018-07-19T17:49:05.653Z,33.56
2018-07-19T17:51:33.976Z,33.37
2018-07-19T17:54:02.295Z,32.53
2018-07-19T17:56:30.925Z,32.17
2018-07-19T17:59:00.153Z,31.67
2018-07-19T18:01:28.505Z,31.61
2018-07-19T18:03:57.181Z,31.17
2018-07-19T18:06:26.255Z,31.10
2018-07-19T18:08:55.021Z,30.74
2018-07-19T18:11:23.959Z,30.88
2018-07-19T18:13:52.419Z,30.41
2018-07-19T18:16:21.482Z,30.28
2018-07-19T18:18:50.594Z,30.27
2018-07-19T18:21:19.137Z,30.10
2018-07-19T18:23:47.696Z,29.96
2018-07-19T18:26:16.806Z,29.84
2018-07-19T18:28:45.073Z,29.85
2018-07-19T18:31:13.900Z,29.76
2018-07-19T18:33:42.161Z,29.82
2018-07-19T18:36:12.442Z,29.57
2018-07-19T18:38:41.848Z,29.71
2018-07-19T18:41:10.411Z,29.67
2018-07-19T18:43:39.318Z,29.41
2018-07-19T18:50:52.804Z,29.37
2018-07-19T18:53:22.088Z,28.81
2018-07-19T18:55:50.689Z,28.63
2018-07-19T18:58:20.004Z,28.60
2018-07-19T19:00:49.347Z,28.46
2018-07-19T19:03:17.699Z,28.32
2018-07-19T19:05:46.988Z,28.07
2018-07-19T19:08:15.329Z,28.01
2018-07-19T19:10:44.209Z,27.86
2018-07-19T19:13:13.112Z,27.52
2018-07-19T19:15:41.810Z,27.33
2018-07-19T19:18:10.327Z,27.13
2018-07-19T19:20:39.418Z,27.09
2018-07-19T19:23:08.213Z,27.09
2018-07-19T19:25:36.803Z,27.01
2018-07-19T19:28:06.407Z,26.81
2018-07-19T19:30:35.029Z,26.69
2018-07-19T19:33:04.388Z,26.68
2018-07-19T19:35:33.001Z,26.65
2018-07-19T19:38:01.153Z,26.54
2018-07-19T19:40:30.746Z,26.55
2018-07-19T19:43:00.017Z,26.47
2018-07-19T19:45:28.895Z,26.38
2018-07-19T19:47:57.553Z,26.34
2018-07-19T19:50:25.958Z,26.39
2018-07-19T19:52:54.935Z,26.37
2018-07-19T19:55:23.230Z,26.33
2018-07-19T19:57:52.077Z,26.29
2018-07-19T20:00:20.462Z,26.17
2018-07-19T20:02:49.318Z,26.20
2018-07-19T20:05:17.710Z,26.06
2018-07-19T20:07:46.989Z,26.04
2018-07-19T20:10:15.671Z,25.93
2018-07-19T20:12:44.223Z,25.95
2018-07-19T20:15:13.440Z,25.99
2018-07-19T20:17:42.597Z,25.98
2018-07-19T20:20:11.544Z,25.89
2018-07-19T20:22:40.450Z,25.86
2018-07-19T20:25:10.409Z,25.81
2018-07-19T20:27:39.673Z,25.84
2018-07-19T20:30:08.096Z,25.86
2018-07-19T20:32:36.977Z,25.71
2018-07-19T20:35:05.384Z,25.73
2018-07-19T20:37:34.196Z,25.58
2018-07-19T20:40:02.749Z,25.54
2018-07-19T20:42:32.189Z,25.55
2018-07-19T20:45:02.032Z,25.37
2018-07-19T20:47:32.000Z,25.34
2018-07-19T20:50:01.342Z,25.29
2018-07-19T20:52:30.965Z,25.23
2018-07-19T20:54:59.546Z,25.22
2018-07-19T20:57:27.771Z,25.00
2018-07-19T20:59:56.865Z,24.96
2018-07-19T21:02:26.781Z,24.87
2018-07-19T21:04:55.074Z,24.87
2018-07-19T21:07:23.961Z,24.84
2018-07-19T21:09:52.507Z,24.65
2018-07-19T21:12:21.122Z,24.65
2018-07-19T21:14:49.947Z,24.68
2018-07-19T21:17:18.792Z,24.68
2018-07-19T21:19:49.067Z,24.55
2018-07-19T21:22:19.519Z,24.40
2018-07-19T21:24:48.626Z,24.29
2018-07-19T21:27:17.543Z,24.26
2018-07-19T21:29:46.162Z,24.13
2018-07-19T21:32:14.393Z,24.01
2018-07-19T21:34:43.348Z,23.98
2018-07-19T21:37:12.870Z,23.91
2018-07-19T21:39:41.161Z,23.89
2018-07-19T21:42:09.924Z,23.93
2018-07-19T21:44:38.106Z,23.83
2018-07-19T21:47:07.308Z,23.81
2018-07-19T21:49:36.664Z,23.76
2018-07-19T21:52:05.399Z,23.73
2018-07-19T21:54:35.512Z,23.73
2018-07-19T21:57:03.785Z,23.69
2018-07-19T21:59:32.073Z,23.62
2018-07-19T22:02:00.369Z,23.77
2018-07-19T22:04:29.336Z,23.68
2018-07-19T22:06:57.590Z,23.59
2018-07-19T22:09:26.293Z,23.46
2018-07-19T22:11:54.495Z,23.46
2018-07-19T22:14:22.761Z,23.55
2018-07-19T22:16:51.388Z,23.46
2018-07-19T22:19:20.660Z,23.35
2018-07-19T22:21:48.942Z,23.30
2018-07-19T22:24:17.168Z,23.39
2018-07-19T22:26:46.007Z,23.44
2018-07-19T22:29:14.368Z,23.41
2018-07-19T22:31:42.703Z,23.41
2018-07-19T22:34:11.590Z,23.29
2018-07-19T22:36:39.976Z,23.29
2018-07-19T22:39:12.374Z,23.15
2018-07-19T22:41:44.249Z,23.19
2018-07-19T22:44:15.649Z,23.16
2018-07-19T22:46:47.235Z,23.11
2018-07-19T22:49:17.624Z,22.97
2018-07-19T22:51:47.380Z,22.85
2018-07-19T22:54:16.496Z,22.69
2018-07-19T22:56:45.044Z,22.79
2018-07-19T22:59:14.441Z,22.66
2018-07-19T23:01:42.713Z,22.53
2018-07-19T23:04:11.156Z,22.46
2018-07-19T23:06:39.937Z,22.38
2018-07-19T23:09:09.604Z,22.42
2018-07-19T23:11:38.058Z,22.32
2018-07-19T23:14:06.765Z,22.29
2018-07-19T23:16:35.595Z,22.23
2018-07-19T23:19:04.157Z,22.30
2018-07-19T23:21:32.713Z,22.27
2018-07-19T23:24:01.467Z,22.35
2018-07-19T23:26:29.821Z,22.27
2018-07-19T23:28:58.128Z,22.21
2018-07-19T23:31:26.577Z,22.16
2018-07-19T23:33:54.866Z,22.14
2018-07-19T23:36:27.419Z,22.01
2018-07-19T23:39:00.926Z,21.92
2018-07-19T23:41:46.169Z,21.86
2018-07-19T23:45:18.540Z,21.87
2018-07-19T23:47:46.981Z,21.74
2018-07-19T23:50:15.223Z,21.78
2018-07-19T23:52:43.710Z,21.71
2018-07-19T23:55:12.008Z,21.78
2018-07-19T23:57:40.264Z,21.88
